createdAt,value
2023-04-03T00:00:44.243Z,87.66
2023-04-03T00:01:44.281Z,87.76
2023-04-03T00:02:44.491Z,87.82
2023-04-03T00:03:44.208Z,87.45
2023-04-03T00:04:44.233Z,87.51
2023-04-03T00:05:44.184Z,87.30
2023-04-03T00:06:44.179Z,87.20
2023-04-03T00:07:44.153Z,87.20
2023-04-03T00:08:44.145Z,87.30
2023-04-03T00:09:44.131Z,87.41
2023-04-03T00:10:44.114Z,87.30
2023-04-03T00:11:44.120Z,87.41
2023-04-03T00:12:44.087Z,87.72
2023-04-03T00:13:44.082Z,87.82
2023-04-03T00:14:44.097Z,87.93
2023-04-03T00:15:44.052Z,88.13
2023-04-03T00:16:44.057Z,88.24
2023-04-03T00:17:44.093Z,88.45
2023-04-03T00:18:44.016Z,88.65
2023-04-03T00:19:44.009Z,89.00
2023-04-03T00:20:43.994Z,89.21
2023-04-03T00:21:44.013Z,89.21
2023-04-03T00:22:43.954Z,89.42
2023-04-03T00:23:43.980Z,89.52
2023-04-03T00:24:43.931Z,89.62
2023-04-03T00:25:43.918Z,89.52
2023-04-03T00:26:43.920Z,89.62
2023-04-03T00:27:43.902Z,89.62
2023-04-03T00:28:43.893Z,89.73
2023-04-03T00:29:43.885Z,89.73
2023-04-03T00:30:43.926Z,89.94
2023-04-03T00:31:43.864Z,89.94
2023-04-03T00:32:43.861Z,89.83
2023-04-03T00:33:43.848Z,89.94
2023-04-03T00:34:43.819Z,89.94
2023-04-03T00:35:43.827Z,89.94
2023-04-03T00:36:43.872Z,89.94
2023-04-03T00:37:43.770Z,89.62
2023-04-03T00:38:43.771Z,89.25
2023-04-03T00:39:43.767Z,89.77
2023-04-03T00:40:43.726Z,90.08
2023-04-03T00:41:43.760Z,90.19
2023-04-03T00:42:43.693Z,90.29
2023-04-03T00:43:43.704Z,90.19
2023-04-03T00:44:43.696Z,90.29
2023-04-03T00:45:43.671Z,90.60
2023-04-03T00:46:43.752Z,90.60
2023-04-03T00:47:43.671Z,90.70
2023-04-03T00:48:43.643Z,90.91
2023-04-03T00:49:43.638Z,91.02
2023-04-03T00:50:43.595Z,91.22
2023-04-03T00:51:43.605Z,91.33
2023-04-03T00:52:43.565Z,91.43
2023-04-03T00:53:43.587Z,91.74
2023-04-03T00:54:43.565Z,91.89
2023-04-03T00:55:43.525Z,92.10
2023-04-03T00:56:43.536Z,91.95
2023-04-03T00:57:43.504Z,91.95
2023-04-03T00:58:43.490Z,91.95
2023-04-03T00:59:43.480Z,92.10
2023-04-03T01:00:43.464Z,92.41
2023-04-03T01:01:43.522Z,92.72
2023-04-03T01:02:43.461Z,92.61
2023-04-03T01:03:43.458Z,92.51
2023-04-03T01:04:43.595Z,92.05
2023-04-03T01:05:43.425Z,92.26
2023-04-03T01:06:43.403Z,92.16
2023-04-03T01:07:43.372Z,91.95
2023-04-03T01:08:43.361Z,91.64
2023-04-03T01:09:43.348Z,91.53
2023-04-03T01:10:43.334Z,91.22
2023-04-03T01:11:43.357Z,91.12
2023-04-03T01:12:46.917Z,91.02
2023-04-03T01:13:43.312Z,90.87
2023-04-03T01:14:44.948Z,90.66
2023-04-03T01:15:43.302Z,90.56
2023-04-03T01:16:43.255Z,90.56
2023-04-03T01:17:43.323Z,90.56
2023-04-03T01:18:43.232Z,90.14
2023-04-03T01:19:43.220Z,89.73
2023-04-03T01:20:43.206Z,89.42
2023-04-03T01:21:43.243Z,89.52
2023-04-03T01:22:43.204Z,89.73
2023-04-03T01:23:43.194Z,89.62
2023-04-03T01:24:43.158Z,89.42
2023-04-03T01:25:43.156Z,89.42
2023-04-03T01:26:43.131Z,88.90
2023-04-03T01:27:43.137Z,88.90
2023-04-03T01:28:43.104Z,89.00
2023-04-03T01:29:43.092Z,89.00
2023-04-03T01:30:43.079Z,89.11
2023-04-03T01:31:43.130Z,89.00
2023-04-03T01:32:43.147Z,89.00
2023-04-03T01:33:43.044Z,88.90
2023-04-03T01:34:43.031Z,88.90
2023-04-03T01:35:43.049Z,89.00
2023-04-03T01:36:43.001Z,88.90
2023-04-03T01:37:43.028Z,88.59
2023-04-03T01:38:42.977Z,88.69
2023-04-03T01:39:42.963Z,88.69
2023-04-03T01:40:42.971Z,88.69
2023-04-03T01:41:42.938Z,88.59
2023-04-03T01:42:42.941Z,88.69
2023-04-03T01:43:42.911Z,88.79
2023-04-03T01:44:42.895Z,88.79
2023-04-03T01:45:42.905Z,88.79
2023-04-03T01:46:42.874Z,88.69
2023-04-03T01:47:42.955Z,88.69
2023-04-03T01:48:42.847Z,88.79
2023-04-03T01:49:42.832Z,88.69
2023-04-03T01:50:42.819Z,88.48
2023-04-03T01:51:42.812Z,88.59
2023-04-03T01:52:42.844Z,88.69
2023-04-03T01:53:42.808Z,88.59
2023-04-03T01:54:42.794Z,88.59
2023-04-03T01:55:42.772Z,88.59
2023-04-03T01:56:42.762Z,88.79
2023-04-03T01:57:42.745Z,88.90
2023-04-03T01:58:42.751Z,88.90
2023-04-03T01:59:42.715Z,88.90
2023-04-03T02:00:42.702Z,89.00
2023-04-03T02:01:42.717Z,89.21
2023-04-03T02:02:42.702Z,89.31
2023-04-03T02:03:42.706Z,89.31
2023-04-03T02:04:42.641Z,89.46
2023-04-03T02:05:42.622Z,89.56
2023-04-03T02:06:42.612Z,89.67
2023-04-03T02:07:42.599Z,89.67
2023-04-03T02:08:42.613Z,89.87
2023-04-03T02:09:42.601Z,89.98
2023-04-03T02:10:42.561Z,90.08
2023-04-03T02:11:42.545Z,89.98
2023-04-03T02:12:42.549Z,89.98
2023-04-03T02:13:42.538Z,90.19
2023-04-03T02:14:42.501Z,90.08
2023-04-03T02:15:42.494Z,90.19
2023-04-03T02:16:42.518Z,90.19
2023-04-03T02:17:42.508Z,90.04
2023-04-03T02:18:42.475Z,90.25
2023-04-03T02:19:42.441Z,90.25
2023-04-03T02:20:42.421Z,90.25
2023-04-03T02:21:42.418Z,90.29
2023-04-03T02:22:42.399Z,90.56
2023-04-03T02:23:42.401Z,90.56
2023-04-03T02:24:42.381Z,90.35
2023-04-03T02:25:42.377Z,90.35
2023-04-03T02:26:42.359Z,90.35
2023-04-03T02:27:42.340Z,90.14
2023-04-03T02:28:42.336Z,90.04
2023-04-03T02:29:42.312Z,90.25
2023-04-03T02:30:42.321Z,90.25
2023-04-03T02:31:42.280Z,90.25
2023-04-03T02:32:42.293Z,90.14
2023-04-03T02:33:42.279Z,90.25
2023-04-03T02:34:42.245Z,90.14
2023-04-03T02:35:42.273Z,90.25
2023-04-03T02:36:42.218Z,90.14
2023-04-03T02:37:42.203Z,90.14
2023-04-03T02:38:42.203Z,90.04
2023-04-03T02:39:42.192Z,90.14
2023-04-03T02:40:42.162Z,90.25
2023-04-03T02:41:42.180Z,90.25
2023-04-03T02:42:42.152Z,90.25
2023-04-03T02:43:42.164Z,90.29
2023-04-03T02:44:42.109Z,90.39
2023-04-03T02:45:42.099Z,90.60
2023-04-03T02:46:42.104Z,90.70
2023-04-03T02:47:42.149Z,90.81
2023-04-03T02:48:42.097Z,90.91
2023-04-03T02:49:42.051Z,90.81
2023-04-03T02:50:42.055Z,90.81
2023-04-03T02:51:42.045Z,90.81
2023-04-03T02:52:42.010Z,90.91
2023-04-03T02:53:42.025Z,91.12
2023-04-03T02:54:41.980Z,90.75
2023-04-03T02:55:41.983Z,91.12
2023-04-03T02:56:41.963Z,91.12
2023-04-03T02:57:42.017Z,90.75
2023-04-03T02:58:41.964Z,90.54
2023-04-03T02:59:41.945Z,90.64
2023-04-03T03:00:41.913Z,90.60
2023-04-03T03:01:41.922Z,90.64
2023-04-03T03:02:41.930Z,90.70
2023-04-03T03:03:41.920Z,90.70
2023-04-03T03:04:41.857Z,90.70
2023-04-03T03:05:41.838Z,90.70
2023-04-03T03:06:42.913Z,90.81
2023-04-03T03:07:41.819Z,90.81
2023-04-03T03:08:41.812Z,90.91
2023-04-03T03:09:41.830Z,90.81
2023-04-03T03:10:41.799Z,90.91
2023-04-03T03:11:41.763Z,90.91
2023-04-03T03:12:41.757Z,90.91
2023-04-03T03:13:41.758Z,91.02
2023-04-03T03:14:41.739Z,91.22
2023-04-03T03:15:41.747Z,91.33
2023-04-03T03:16:41.696Z,91.12
2023-04-03T03:17:41.793Z,91.27
2023-04-03T03:18:41.669Z,91.37
2023-04-03T03:19:41.674Z,91.37
2023-04-03T03:20:41.656Z,91.47
2023-04-03T03:21:41.627Z,91.58
2023-04-03T03:22:41.622Z,91.47
2023-04-03T03:23:41.614Z,91.37
2023-04-03T03:24:41.607Z,91.06
2023-04-03T03:25:41.579Z,91.06
2023-04-03T03:26:41.591Z,90.85
2023-04-03T03:27:41.555Z,90.33
2023-04-03T03:28:41.544Z,90.33
2023-04-03T03:29:41.584Z,90.12
2023-04-03T03:30:41.513Z,89.92
2023-04-03T03:31:41.569Z,89.92
2023-04-03T03:32:41.522Z,89.71
2023-04-03T03:33:41.470Z,89.40
2023-04-03T03:34:41.486Z,89.40
2023-04-03T03:35:41.452Z,89.40
2023-04-03T03:36:41.433Z,89.50
2023-04-03T03:37:41.427Z,89.29
2023-04-03T03:38:41.411Z,89.09
2023-04-03T03:39:41.420Z,88.88
2023-04-03T03:40:41.384Z,89.09
2023-04-03T03:41:41.365Z,88.57
2023-04-03T03:42:41.351Z,88.57
2023-04-03T03:43:41.350Z,88.57
2023-04-03T03:44:41.343Z,88.26
2023-04-03T03:45:41.334Z,88.26
2023-04-03T03:46:41.332Z,88.36
2023-04-03T03:47:41.294Z,88.05
2023-04-03T03:48:41.275Z,87.84
2023-04-03T03:49:41.280Z,87.84
2023-04-03T03:50:41.253Z,87.95
2023-04-03T03:51:41.238Z,88.05
2023-04-03T03:52:41.230Z,87.95
2023-04-03T03:53:41.217Z,87.74
2023-04-03T03:54:41.217Z,87.74
2023-04-03T03:55:41.181Z,87.74
2023-04-03T03:56:41.172Z,87.32
2023-04-03T03:57:41.158Z,86.80
2023-04-03T03:58:41.147Z,86.60
2023-04-03T03:59:41.151Z,86.49
2023-04-03T04:00:41.122Z,86.18
2023-04-03T04:01:41.179Z,85.97
2023-04-03T04:02:41.223Z,85.46
2023-04-03T04:03:41.181Z,85.77
2023-04-03T04:04:41.093Z,86.08
2023-04-03T04:05:41.057Z,85.87
2023-04-03T04:06:41.043Z,85.56
2023-04-03T04:07:41.031Z,85.25
2023-04-03T04:08:41.022Z,85.14
2023-04-03T04:09:41.034Z,85.14
2023-04-03T04:10:41.069Z,84.94
2023-04-03T04:11:40.979Z,85.04
2023-04-03T04:12:40.992Z,85.14
2023-04-03T04:13:40.959Z,85.14
2023-04-03T04:14:40.968Z,84.98
2023-04-03T04:15:41.247Z,84.98
2023-04-03T04:16:40.989Z,84.88
2023-04-03T04:17:40.957Z,84.88
2023-04-03T04:18:40.909Z,85.29
2023-04-03T04:19:40.897Z,85.29
2023-04-03T04:20:40.870Z,85.39
2023-04-03T04:21:40.848Z,85.39
2023-04-03T04:22:40.843Z,85.64
2023-04-03T04:23:40.827Z,85.85
2023-04-03T04:24:40.826Z,85.95
2023-04-03T04:25:40.800Z,86.16
2023-04-03T04:26:40.796Z,86.16
2023-04-03T04:27:40.775Z,86.47
2023-04-03T04:28:40.759Z,86.57
2023-04-03T04:29:40.770Z,86.88
2023-04-03T04:30:40.771Z,86.82
2023-04-03T04:31:40.715Z,86.72
2023-04-03T04:32:40.723Z,87.03
2023-04-03T04:33:40.712Z,86.61
2023-04-03T04:34:40.710Z,86.61
2023-04-03T04:35:41.139Z,86.93
2023-04-03T04:36:40.782Z,87.03
2023-04-03T04:37:40.639Z,87.17
2023-04-03T04:38:40.632Z,87.38
2023-04-03T04:39:40.618Z,88.21
2023-04-03T04:40:40.625Z,87.38
2023-04-03T04:41:40.586Z,87.38
2023-04-03T04:42:40.581Z,87.07
2023-04-03T04:43:40.570Z,87.17
2023-04-03T04:44:40.591Z,87.17
2023-04-03T04:45:40.576Z,87.27
2023-04-03T04:46:40.550Z,87.27
2023-04-03T04:47:40.585Z,87.48
2023-04-03T04:48:40.498Z,87.84
2023-04-03T04:49:40.502Z,87.52
2023-04-03T04:50:40.515Z,87.84
2023-04-03T04:51:51.048Z,87.63
2023-04-03T04:52:40.457Z,87.42
2023-04-03T04:53:40.434Z,87.52
2023-04-03T04:54:40.418Z,87.63
2023-04-03T04:55:40.422Z,87.94
2023-04-03T04:56:40.396Z,87.73
2023-04-03T04:57:40.414Z,87.84
2023-04-03T04:58:40.378Z,87.84
2023-04-03T04:59:40.354Z,88.15
2023-04-03T05:00:40.354Z,88.19
2023-04-03T05:01:40.345Z,88.15
2023-04-03T05:02:40.340Z,88.29
2023-04-03T05:03:40.312Z,88.29
2023-04-03T05:04:40.305Z,88.19
2023-04-03T05:05:40.444Z,88.40
2023-04-03T05:06:40.273Z,88.29
2023-04-03T05:07:40.253Z,88.09
2023-04-03T05:08:40.241Z,88.04
2023-04-03T05:09:40.229Z,88.09
2023-04-03T05:10:40.227Z,88.09
2023-04-03T05:11:40.200Z,87.77
2023-04-03T05:12:40.190Z,88.04
2023-04-03T05:13:40.179Z,88.04
2023-04-03T05:14:40.164Z,87.98
2023-04-03T05:15:40.305Z,87.94
2023-04-03T05:16:40.139Z,87.88
2023-04-03T05:17:40.132Z,88.04
2023-04-03T05:18:40.112Z,88.15
2023-04-03T05:19:40.107Z,87.73
2023-04-03T05:20:40.100Z,87.63
2023-04-03T05:21:40.094Z,88.15
2023-04-03T05:22:40.061Z,87.73
2023-04-03T05:23:40.063Z,87.84
2023-04-03T05:24:40.054Z,87.63
2023-04-03T05:25:40.073Z,87.56
2023-04-03T05:26:40.025Z,87.66
2023-04-03T05:27:39.993Z,87.73
2023-04-03T05:28:39.993Z,87.88
2023-04-03T05:29:39.996Z,87.88
2023-04-03T05:30:39.993Z,87.94
2023-04-03T05:31:40.023Z,87.42
2023-04-03T05:32:40.005Z,87.42
2023-04-03T05:33:39.917Z,87.52
2023-04-03T05:34:39.912Z,87.42
2023-04-03T05:35:40.202Z,87.21
2023-04-03T05:36:39.883Z,87.11
2023-04-03T05:37:39.883Z,86.96
2023-04-03T05:38:39.859Z,84.77
2023-04-03T05:39:39.840Z,82.58
2023-04-03T05:40:39.850Z,80.19
2023-04-03T05:41:39.815Z,78.36
2023-04-03T05:42:39.797Z,76.67
2023-04-03T05:43:39.813Z,75.70
2023-04-03T05:44:39.775Z,74.84
2023-04-03T05:45:39.804Z,73.81
2023-04-03T05:46:39.753Z,73.98
2023-04-03T05:47:39.795Z,73.33
2023-04-03T05:48:39.744Z,72.27
2023-04-03T05:49:39.703Z,72.13
2023-04-03T05:50:39.733Z,71.10
2023-04-03T05:51:39.677Z,70.68
2023-04-03T05:52:39.682Z,70.58
2023-04-03T05:53:39.712Z,70.45
2023-04-03T05:54:39.645Z,69.90
2023-04-03T05:55:39.838Z,69.79
2023-04-03T05:56:39.622Z,69.28
2023-04-03T05:57:39.622Z,69.35
2023-04-03T05:58:39.592Z,67.98
2023-04-03T05:59:39.577Z,67.98
2023-04-03T06:00:39.591Z,68.05
2023-04-03T06:01:39.553Z,66.82
2023-04-03T06:02:39.679Z,66.69
2023-04-03T06:03:40.432Z,66.45
2023-04-03T06:04:39.561Z,66.38
2023-04-03T06:05:39.757Z,66.28
2023-04-03T06:06:39.492Z,65.73
2023-04-03T06:07:39.479Z,65.97
2023-04-03T06:08:39.466Z,65.70
2023-04-03T06:09:39.477Z,64.13
2023-04-03T06:10:39.781Z,64.23
2023-04-03T06:11:39.437Z,64.64
2023-04-03T06:12:39.417Z,64.13
2023-04-03T06:13:39.394Z,63.85
2023-04-03T06:14:39.384Z,64.40
2023-04-03T06:15:39.391Z,65.56
2023-04-03T06:16:39.955Z,64.91
2023-04-03T06:17:39.377Z,65.01
2023-04-03T06:18:39.328Z,64.44
2023-04-03T06:19:39.313Z,64.98
2023-04-03T06:20:39.589Z,64.61
2023-04-03T06:21:39.318Z,63.29
2023-04-03T06:22:39.296Z,61.86
2023-04-03T06:23:39.556Z,62.33
2023-04-03T06:24:39.266Z,63.18
2023-04-03T06:25:39.307Z,63.10
2023-04-03T06:26:39.238Z,63.69
2023-04-03T06:27:39.213Z,63.59
2023-04-03T06:28:39.198Z,62.51
2023-04-03T06:29:39.189Z,62.33
2023-04-03T06:30:39.657Z,62.68
2023-04-03T06:31:39.193Z,61.73
2023-04-03T06:32:39.205Z,60.99
2023-04-03T06:33:39.150Z,61.04
2023-04-03T06:34:39.127Z,61.96
2023-04-03T06:35:39.131Z,61.69
2023-04-03T06:36:39.109Z,61.45
2023-04-03T06:37:39.086Z,61.25
2023-04-03T06:38:39.069Z,60.71
2023-04-03T06:39:39.065Z,60.40
2023-04-03T06:40:39.465Z,61.38
2023-04-03T06:41:39.063Z,60.91
2023-04-03T06:42:39.024Z,61.07
2023-04-03T06:43:39.001Z,61.96
2023-04-03T06:44:39.007Z,60.81
2023-04-03T06:45:39.391Z,60.60
2023-04-03T06:46:39.111Z,60.02
2023-04-03T06:47:39.003Z,60.81
2023-04-03T06:48:38.944Z,59.73
2023-04-03T06:49:38.941Z,59.30
2023-04-03T06:50:38.913Z,58.75
2023-04-03T06:51:38.928Z,58.45
2023-04-03T06:52:38.882Z,59.42
2023-04-03T06:53:38.894Z,58.40
2023-04-03T06:54:38.859Z,59.45
2023-04-03T06:55:39.106Z,59.68
2023-04-03T06:56:38.844Z,60.30
2023-04-03T06:57:38.964Z,59.76
2023-04-03T06:58:38.807Z,60.10
2023-04-03T06:59:38.805Z,59.32
2023-04-03T07:00:38.871Z,58.27
2023-04-03T07:01:38.832Z,58.40
2023-04-03T07:02:38.811Z,59.42
2023-04-03T07:03:38.825Z,58.68
2023-04-03T07:04:38.852Z,57.63
2023-04-03T07:05:39.016Z,57.43
2023-04-03T07:06:38.696Z,57.84
2023-04-03T07:07:38.774Z,56.96
2023-04-03T07:08:38.756Z,57.04
2023-04-03T07:09:38.656Z,55.87
2023-04-03T07:10:38.645Z,55.38
2023-04-03T07:11:38.635Z,55.02
2023-04-03T07:12:38.638Z,55.43
2023-04-03T07:13:38.624Z,54.28
2023-04-03T07:14:38.621Z,53.57
2023-04-03T07:15:38.694Z,53.32
2023-04-03T07:16:40.920Z,53.24
2023-04-03T07:17:38.964Z,53.39
2023-04-03T07:18:38.540Z,53.55
2023-04-03T07:19:38.518Z,55.79
2023-04-03T07:20:38.509Z,55.66
2023-04-03T07:21:38.500Z,54.33
2023-04-03T07:22:38.508Z,55.74
2023-04-03T07:23:38.485Z,56.53
2023-04-03T07:24:38.483Z,55.05
2023-04-03T07:25:38.680Z,54.74
2023-04-03T07:26:38.434Z,54.87
2023-04-03T07:27:38.433Z,55.82
2023-04-03T07:28:38.409Z,55.35
2023-04-03T07:29:38.412Z,54.59
2023-04-03T07:30:38.380Z,53.04
2023-04-03T07:31:38.419Z,52.88
2023-04-03T07:32:38.393Z,53.80
2023-04-03T07:33:38.424Z,53.39
2023-04-03T07:34:38.347Z,53.57
2023-04-03T07:35:38.574Z,53.16
2023-04-03T07:36:38.296Z,53.47
2023-04-03T07:37:38.316Z,52.73
2023-04-03T07:38:38.307Z,52.73
2023-04-03T07:39:38.263Z,52.40
2023-04-03T07:40:38.247Z,52.08
2023-04-03T07:41:38.235Z,50.73
2023-04-03T07:42:38.340Z,51.56
2023-04-03T07:43:38.219Z,51.14
2023-04-03T07:44:38.196Z,51.34
2023-04-03T07:45:38.551Z,51.56
2023-04-03T07:46:38.163Z,51.75
2023-04-03T07:47:38.181Z,51.72
2023-04-03T07:48:38.148Z,50.52
2023-04-03T07:49:38.131Z,50.93
2023-04-03T07:50:38.124Z,49.51
2023-04-03T07:51:38.103Z,50.85
2023-04-03T07:52:38.121Z,50.32
2023-04-03T07:53:38.079Z,50.22
2023-04-03T07:54:38.073Z,50.24
2023-04-03T07:55:38.390Z,50.87
2023-04-03T07:56:38.031Z,51.89
2023-04-03T07:57:38.116Z,50.93
2023-04-03T07:58:38.007Z,49.97
2023-04-03T07:59:38.041Z,49.18
2023-04-03T08:00:37.993Z,49.33
2023-04-03T08:01:38.048Z,49.03
2023-04-03T08:02:38.002Z,48.83
2023-04-03T08:03:38.190Z,48.40
2023-04-03T08:04:38.011Z,48.38
2023-04-03T08:05:38.262Z,48.15
2023-04-03T08:06:46.454Z,46.91
2023-04-03T08:07:37.884Z,46.10
2023-04-03T08:08:37.894Z,46.81
2023-04-03T08:09:37.857Z,46.94
2023-04-03T08:10:37.855Z,47.49
2023-04-03T08:11:37.829Z,47.36
2023-04-03T08:12:37.833Z,46.95
2023-04-03T08:13:37.825Z,47.46
2023-04-03T08:14:37.794Z,46.95
2023-04-03T08:15:37.986Z,47.56
2023-04-03T08:16:37.815Z,47.89
2023-04-03T08:17:37.853Z,48.07
2023-04-03T08:18:37.763Z,47.44
2023-04-03T08:19:37.736Z,47.72
2023-04-03T08:20:37.714Z,46.51
2023-04-03T08:21:37.712Z,45.86
2023-04-03T08:22:37.692Z,48.76
2023-04-03T08:23:37.710Z,48.80
2023-04-03T08:24:39.293Z,48.27
2023-04-03T08:25:37.829Z,50.15
2023-04-03T08:26:37.639Z,50.49
2023-04-03T08:27:37.623Z,49.12
2023-04-03T08:28:37.625Z,49.13
2023-04-03T08:29:37.595Z,49.96
2023-04-03T08:30:37.616Z,49.15
2023-04-03T08:31:37.564Z,50.87
2023-04-03T08:32:37.600Z,51.96
2023-04-03T08:33:37.590Z,53.69
2023-04-03T08:34:37.594Z,55.43
2023-04-03T08:35:38.132Z,53.36
2023-04-03T08:36:37.500Z,52.12
2023-04-03T08:37:37.546Z,51.15
2023-04-03T08:38:37.485Z,49.52
2023-04-03T08:39:37.462Z,50.96
2023-04-03T08:40:37.466Z,53.19
2023-04-03T08:41:37.439Z,54.00
2023-04-03T08:42:37.432Z,54.77
2023-04-03T08:43:37.405Z,53.67
2023-04-03T08:44:37.434Z,52.83
2023-04-03T08:45:37.530Z,51.46
2023-04-03T08:46:37.486Z,49.45
2023-04-03T08:47:37.378Z,48.11
2023-04-03T08:48:37.361Z,46.29
2023-04-03T08:49:37.515Z,46.72
2023-04-03T08:50:37.322Z,47.17
2023-04-03T08:51:37.303Z,50.01
2023-04-03T08:52:37.287Z,49.98
2023-04-03T08:53:38.267Z,48.83
2023-04-03T08:54:37.347Z,50.99
2023-04-03T08:55:37.457Z,51.65
2023-04-03T08:56:37.239Z,49.90
2023-04-03T08:57:37.259Z,48.72
2023-04-03T08:58:37.210Z,48.81
2023-04-03T08:59:37.209Z,50.34
2023-04-03T09:00:37.195Z,49.98
2023-04-03T09:01:37.215Z,48.54
2023-04-03T09:02:38.575Z,48.57
2023-04-03T09:03:37.191Z,47.28
2023-04-03T09:04:37.140Z,46.35
2023-04-03T09:05:37.498Z,45.62
2023-04-03T09:06:38.090Z,45.07
2023-04-03T09:07:37.096Z,44.03
2023-04-03T09:08:37.075Z,44.15
2023-04-03T09:09:37.080Z,44.34
2023-04-03T09:10:37.202Z,44.60
2023-04-03T09:11:37.058Z,44.34
2023-04-03T09:12:37.023Z,45.19
2023-04-03T09:13:37.013Z,44.82
2023-04-03T09:14:37.024Z,44.03
2023-04-03T09:15:39.460Z,44.34
2023-04-03T09:16:36.977Z,42.86
2023-04-03T09:17:36.982Z,43.04
2023-04-03T09:18:36.939Z,44.38
2023-04-03T09:19:36.968Z,44.38
2023-04-03T09:20:37.085Z,44.56
2023-04-03T09:21:37.026Z,44.24
2023-04-03T09:22:45.808Z,44.90
2023-04-03T09:23:36.882Z,45.83
2023-04-03T09:24:36.879Z,48.25
2023-04-03T09:25:36.862Z,49.98
2023-04-03T09:26:36.842Z,50.38
2023-04-03T09:27:36.898Z,50.14
2023-04-03T09:28:42.916Z,48.44
2023-04-03T09:29:37.812Z,47.55
2023-04-03T09:30:37.084Z,47.45
2023-04-03T09:31:36.794Z,47.22
2023-04-03T09:32:36.773Z,47.51
2023-04-03T09:33:36.746Z,46.71
2023-04-03T09:34:36.751Z,45.04
2023-04-03T09:35:47.467Z,44.76
2023-04-03T09:36:36.708Z,46.29
2023-04-03T09:37:37.970Z,46.15
2023-04-03T09:38:36.691Z,48.43
2023-04-03T09:39:36.679Z,48.15
2023-04-03T09:40:37.017Z,50.08
2023-04-03T09:41:36.663Z,51.55
2023-04-03T09:42:36.626Z,52.01
2023-04-03T09:43:36.631Z,52.95
2023-04-03T09:44:36.638Z,53.97
2023-04-03T09:45:36.596Z,54.69
2023-04-03T09:46:36.614Z,55.85
2023-04-03T09:47:36.642Z,56.20
2023-04-03T09:48:36.574Z,56.00
2023-04-03T09:49:36.565Z,56.51
2023-04-03T09:50:36.810Z,56.51
2023-04-03T09:51:36.536Z,56.62
2023-04-03T09:52:38.711Z,55.54
2023-04-03T09:53:36.632Z,56.15
2023-04-03T09:54:36.489Z,54.69
2023-04-03T09:55:36.481Z,52.06
2023-04-03T09:56:36.493Z,52.50
2023-04-03T09:57:36.611Z,52.45
2023-04-03T09:58:49.196Z,49.29
2023-04-03T09:59:36.459Z,48.82
2023-04-03T10:00:36.677Z,47.55
2023-04-03T10:01:36.570Z,46.39
2023-04-03T10:02:36.471Z,46.17
2023-04-03T10:03:36.354Z,45.37
2023-04-03T10:04:36.511Z,45.36
2023-04-03T10:05:36.359Z,45.15
2023-04-03T10:06:36.424Z,45.74
2023-04-03T10:07:36.318Z,45.79
2023-04-03T10:08:36.290Z,44.64
2023-04-03T10:09:36.409Z,43.55
2023-04-03T10:10:36.523Z,45.17
2023-04-03T10:11:36.288Z,45.84
2023-04-03T10:12:36.335Z,44.36
2023-04-03T10:13:42.006Z,43.75
2023-04-03T10:14:36.211Z,43.61
2023-04-03T10:15:36.226Z,42.78
2023-04-03T10:16:36.267Z,42.23
2023-04-03T10:17:36.320Z,42.25
2023-04-03T10:18:36.178Z,42.66
2023-04-03T10:19:36.140Z,41.32
2023-04-03T10:20:36.288Z,40.90
2023-04-03T10:21:36.141Z,40.09
2023-04-03T10:22:36.147Z,40.92
2023-04-03T10:23:36.104Z,41.73
2023-04-03T10:24:36.088Z,40.50
2023-04-03T10:25:36.204Z,40.08
2023-04-03T10:26:36.046Z,40.17
2023-04-03T10:27:36.033Z,40.23
2023-04-03T10:28:36.038Z,38.22
2023-04-03T10:29:36.229Z,38.44
2023-04-03T10:30:36.434Z,40.53
2023-04-03T10:31:36.026Z,41.34
2023-04-03T10:32:35.983Z,43.16
2023-04-03T10:33:35.956Z,45.46
2023-04-03T10:34:35.944Z,46.32
2023-04-03T10:35:35.974Z,45.53
2023-04-03T10:36:35.953Z,47.17
2023-04-03T10:37:35.930Z,47.50
2023-04-03T10:38:35.902Z,47.42
2023-04-03T10:39:35.882Z,47.71
2023-04-03T10:40:36.197Z,47.05
2023-04-03T10:41:35.973Z,45.95
2023-04-03T10:42:35.844Z,45.38
2023-04-03T10:43:35.835Z,46.44
2023-04-03T10:44:35.855Z,47.29
2023-04-03T10:45:35.821Z,48.91
2023-04-03T10:46:35.885Z,48.91
2023-04-03T10:47:38.018Z,49.93
2023-04-03T10:48:35.765Z,48.56
2023-04-03T10:49:35.739Z,47.52
2023-04-03T10:50:36.152Z,47.04
2023-04-03T10:51:35.750Z,47.06
2023-04-03T10:52:35.701Z,47.32
2023-04-03T10:53:35.707Z,44.87
2023-04-03T10:54:35.706Z,44.36
2023-04-03T10:55:35.660Z,43.24
2023-04-03T10:56:35.692Z,41.85
2023-04-03T10:57:35.798Z,37.00
2023-04-03T10:58:35.656Z,39.89
2023-04-03T10:59:35.615Z,38.79
2023-04-03T11:00:35.880Z,36.71
2023-04-03T11:01:35.678Z,36.46
2023-04-03T11:02:35.665Z,35.72
2023-04-03T11:03:35.635Z,35.57
2023-04-03T11:04:35.545Z,35.30
2023-04-03T11:05:35.577Z,34.64
2023-04-03T11:06:35.537Z,34.12
2023-04-03T11:07:35.516Z,33.51
2023-04-03T11:08:35.576Z,34.49
2023-04-03T11:09:35.490Z,34.27
2023-04-03T11:10:35.467Z,33.84
2023-04-03T11:11:35.505Z,32.43
2023-04-03T11:12:35.452Z,32.54
2023-04-03T11:13:35.546Z,32.81
2023-04-03T11:14:35.427Z,34.43
2023-04-03T11:15:35.640Z,35.13
2023-04-03T11:16:43.687Z,35.11
2023-04-03T11:17:35.462Z,34.28
2023-04-03T11:18:35.362Z,33.04
2023-04-03T11:19:35.352Z,32.40
2023-04-03T11:20:35.356Z,32.50
2023-04-03T11:21:35.338Z,30.63
2023-04-03T11:22:35.324Z,34.09
2023-04-03T11:23:42.492Z,34.78
2023-04-03T11:24:36.288Z,36.83
2023-04-03T11:25:35.594Z,35.71
2023-04-03T11:26:35.290Z,36.79
2023-04-03T11:27:35.245Z,39.37
2023-04-03T11:28:35.275Z,40.78
2023-04-03T11:29:36.071Z,38.09
2023-04-03T11:30:35.225Z,37.98
2023-04-03T11:31:35.251Z,36.81
2023-04-03T11:32:35.295Z,35.83
2023-04-03T11:33:35.178Z,34.20
2023-04-03T11:34:35.160Z,33.98
2023-04-03T11:35:35.244Z,33.07
2023-04-03T11:36:36.504Z,34.03
2023-04-03T11:37:35.114Z,33.41
2023-04-03T11:38:35.100Z,33.76
2023-04-03T11:39:35.090Z,34.74
2023-04-03T11:40:35.081Z,33.19
2023-04-03T11:41:35.091Z,32.34
2023-04-03T11:42:35.160Z,35.42
2023-04-03T11:43:35.042Z,34.69
2023-04-03T11:44:35.039Z,37.45
2023-04-03T11:45:35.216Z,38.55
2023-04-03T11:46:35.077Z,38.26
2023-04-03T11:47:35.031Z,38.60
2023-04-03T11:48:35.007Z,38.45
2023-04-03T11:49:34.969Z,38.35
2023-04-03T11:50:34.943Z,38.11
2023-04-03T11:51:34.931Z,39.47
2023-04-03T11:52:34.951Z,40.44
2023-04-03T11:53:34.908Z,40.69
2023-04-03T11:54:42.167Z,41.36
2023-04-03T11:55:35.057Z,41.23
2023-04-03T11:56:34.872Z,38.28
2023-04-03T11:57:34.888Z,38.81
2023-04-03T11:58:34.842Z,38.21
2023-04-03T11:59:34.826Z,35.90
2023-04-03T12:00:34.814Z,35.08
2023-04-03T12:01:34.920Z,35.14
2023-04-03T12:02:41.148Z,35.94
2023-04-03T12:03:34.862Z,35.11
2023-04-03T12:04:34.817Z,34.03
2023-04-03T12:05:34.813Z,33.47
2023-04-03T12:06:34.741Z,30.02
2023-04-03T12:07:34.742Z,32.10
2023-04-03T12:08:34.727Z,34.43
2023-04-03T12:09:34.714Z,34.38
2023-04-03T12:10:34.702Z,37.40
2023-04-03T12:11:34.677Z,38.42
2023-04-03T12:12:34.669Z,39.19
2023-04-03T12:13:34.642Z,37.44
2023-04-03T12:14:34.629Z,36.12
2023-04-03T12:15:34.614Z,35.46
2023-04-03T12:16:34.637Z,35.30
2023-04-03T12:17:34.770Z,34.64
2023-04-03T12:18:34.595Z,33.25
2023-04-03T12:19:42.488Z,33.44
2023-04-03T12:20:35.548Z,35.55
2023-04-03T12:21:34.532Z,35.95
2023-04-03T12:22:34.545Z,35.01
2023-04-03T12:23:34.550Z,34.16
2023-04-03T12:24:34.504Z,33.99
2023-04-03T12:25:34.494Z,32.98
2023-04-03T12:26:45.546Z,32.75
2023-04-03T12:27:34.476Z,31.71
2023-04-03T12:28:34.455Z,30.67
2023-04-03T12:29:34.543Z,30.48
2023-04-03T12:30:34.433Z,33.40
2023-04-03T12:31:34.446Z,32.85
2023-04-03T12:32:34.445Z,32.38
2023-04-03T12:33:34.577Z,32.68
2023-04-03T12:34:34.380Z,32.67
2023-04-03T12:35:34.378Z,32.36
2023-04-03T12:36:34.344Z,32.58
2023-04-03T12:37:34.372Z,32.20
2023-04-03T12:38:34.335Z,33.16
2023-04-03T12:39:34.303Z,33.66
2023-04-03T12:40:34.301Z,33.81
2023-04-03T12:41:34.277Z,33.90
2023-04-03T12:42:34.301Z,33.36
2023-04-03T12:43:34.252Z,32.82
2023-04-03T12:44:34.251Z,34.00
2023-04-03T12:45:34.236Z,34.00
2023-04-03T12:46:34.310Z,32.93
2023-04-03T12:47:34.319Z,32.78
2023-04-03T12:48:34.207Z,31.96
2023-04-03T12:49:34.321Z,31.14
2023-04-03T12:50:34.171Z,30.76
2023-04-03T12:51:34.148Z,31.65
2023-04-03T12:52:34.154Z,32.05